Time;durP1;ratioP1;P1;durP2;ratioP2;P2;SDS_P1;SDS_P2;PMS_P1;PMS_P2;Temp;Humidity;BMP_temperature;BMP_pressure;BME280_temperature;BME280_humidity;BME280_pressure;Samples;Min_cycle;Max_cycle;Signal;HPM_P1;HPM_P2
2022/09/16 00:01:18;;;;;;;2.85;1.05;;;;;;;13.81;69.88;99943.53;5028982;28;20030;-21
2022/09/16 00:03:44;;;;;;;1.02;0.90;;;;;;;13.78;69.59;99940.97;5026148;28;20056;-22
2022/09/16 00:06:22;;;;;;;2.80;0.70;;;;;;;13.75;69.78;99941.09;5019371;28;20033;-21
2022/09/16 00:08:49;;;;;;;1.30;1.02;;;;;;;13.71;69.58;99941.19;5027118;28;20072;-21
2022/09/16 00:11:17;;;;;;;1.08;0.65;;;;;;;13.70;69.80;99947.41;5027275;28;20028;-21
2022/09/16 00:13:43;;;;;;;0.93;0.63;;;;;;;13.70;69.67;99954.47;5006709;28;20029;-22
2022/09/16 00:16:13;;;;;;;0.60;0.60;;;;;;;13.66;69.91;99956.38;5019798;28;20044;-21
2022/09/16 00:18:38;;;;;;;0.98;0.70;;;;;;;13.64;69.61;99954.69;5018679;28;20053;-21
2022/09/16 00:21:09;;;;;;;1.17;0.90;;;;;;;13.61;69.99;99955.69;5019553;28;20061;-23
2022/09/16 00:23:36;;;;;;;0.50;0.50;;;;;;;13.57;69.73;99959.34;5023478;28;20041;-22
2022/09/16 00:26:02;;;;;;;1.25;0.90;;;;;;;13.56;69.96;99961.13;5026819;28;20037;-22
2022/09/16 00:28:28;;;;;;;2.20;1.02;;;;;;;13.55;69.88;99958.53;5029633;28;20395;-23
2022/09/16 00:30:58;;;;;;;0.93;0.85;;;;;;;13.55;69.82;99950.56;5027697;28;20467;-23
2022/09/16 00:33:24;;;;;;;0.75;0.70;;;;;;;13.51;69.99;99951.59;5022788;28;20037;-23
2022/09/16 00:35:49;;;;;;;1.10;0.88;;;;;;;13.47;69.97;99962.25;5011233;28;20394;-22
2022/09/16 00:38:15;;;;;;;1.77;0.80;;;;;;;13.45;69.68;99955.28;5026019;28;20486;-22
2022/09/16 00:40:48;;;;;;;1.40;0.70;;;;;;;13.42;70.11;99950.94;5028741;28;20044;-22
2022/09/16 00:43:17;;;;;;;0.80;0.80;;;;;;;13.42;69.96;99953.59;5025241;28;20413;-22
2022/09/16 00:45:45;;;;;;;0.70;0.70;;;;;;;13.41;69.86;99953.66;5022582;28;20033;-22
2022/09/16 00:48:18;;;;;;;1.10;1.02;;;;;;;13.38;70.09;99954.63;5018720;28;20033;-23
2022/09/16 00:50:50;;;;;;;1.55;0.80;;;;;;;13.36;69.86;99953.78;5021543;28;20038;-22
2022/09/16 00:53:19;;;;;;;1.00;0.70;;;;;;;13.34;69.68;99953.00;5016718;28;20501;-22
2022/09/16 00:55:45;;;;;;;1.67;1.00;;;;;;;13.33;69.84;99956.53;5025083;28;20022;-22
2022/09/16 00:58:38;;;;;;;1.45;1.00;;;;;;;13.29;69.80;99954.91;5024487;28;20459;-22
2022/09/16 01:01:04;;;;;;;1.00;0.70;;;;;;;13.23;70.21;99949.81;5021832;28;20042;-23
2022/09/16 01:03:31;;;;;;;1.58;1.00;;;;;;;13.23;69.74;99955.13;5011736;28;20022;-22
2022/09/16 01:05:56;;;;;;;1.58;0.88;;;;;;;13.20;69.98;99954.28;5011749;28;20546;-22
2022/09/16 01:08:21;;;;;;;2.30;1.10;;;;;;;13.18;69.87;99948.16;5011657;28;20116;-23
2022/09/16 01:10:47;;;;;;;1.48;0.85;;;;;;;13.17;70.26;99951.72;5027448;28;20056;-23
2022/09/16 01:13:14;;;;;;;5.20;0.88;;;;;;;13.15;69.93;99950.91;5021720;28;20026;-22
2022/09/16 01:16:00;;;;;;;2.45;1.20;;;;;;;13.15;69.75;99953.56;5015318;28;20029;-22
2022/09/16 01:19:03;;;;;;;4.20;0.95;;;;;;;13.14;70.12;99957.09;5018969;28;20048;-23
2022/09/16 01:21:34;;;;;;;1.48;1.00;;;;;;;13.10;70.17;99950.19;5011005;28;20041;-22
2022/09/16 01:24:26;;;;;;;;;;;;;;;13.07;70.46;99961.72;5021584;28;20037;-22
2022/09/16 01:27:04;;;;;;;2.33;0.90;;;;;;;13.06;70.38;99953.84;5012310;28;20389;-23
2022/09/16 01:30:03;;;;;;;2.15;1.05;;;;;;;13.02;70.60;99949.56;5014014;28;20116;-22
2022/09/16 01:32:46;;;;;;;2.95;1.10;;;;;;;13.01;70.74;99946.03;5024839;28;20021;-22
2022/09/16 01:35:37;;;;;;;1.08;0.95;;;;;;;13.01;70.48;99955.78;5021735;28;20037;-22
2022/09/16 01:38:39;;;;;;;0.90;0.90;;;;;;;12.97;70.32;99949.69;5017521;28;20030;-21
2022/09/16 01:41:11;;;;;;;1.85;1.13;;;;;;;12.94;70.67;99939.22;5019310;28;20292;-21
2022/09/16 01:43:58;;;;;;;2.70;0.95;;;;;;;12.91;70.80;99947.25;5020484;28;20034;-21
2022/09/16 01:47:08;;;;;;;1.33;1.00;;;;;;;12.89;70.70;99942.00;5023951;28;20039;-21
2022/09/16 01:49:57;;;;;;;0.98;0.85;;;;;;;12.88;70.97;99939.41;5012010;28;20070;-21
2022/09/16 01:52:32;;;;;;;1.25;0.98;;;;;;;12.85;70.83;99939.47;5023257;28;20053;-22
2022/09/16 01:55:07;;;;;;;2.17;1.10;;;;;;;12.82;71.13;99941.34;5025028;28;20018;-23
2022/09/16 01:57:38;;;;;;;2.25;0.95;;;;;;;12.82;70.72;99940.44;5024945;28;20084;-22
2022/09/16 02:00:13;;;;;;;2.22;0.80;;;;;;;12.80;70.70;99936.97;5032027;28;20221;-23
2022/09/16 02:02:57;;;;;;;4.50;1.33;;;;;;;12.77;70.99;99942.38;5019259;28;20026;-22
2022/09/16 02:05:26;;;;;;;0.60;0.60;;;;;;;12.75;70.68;99944.19;5023382;28;20029;-22
2022/09/16 02:08:00;;;;;;;1.48;0.85;;;;;;;12.74;70.71;99950.41;5023033;28;20021;-22
2022/09/16 02:10:28;;;;;;;1.08;0.95;;;;;;;12.74;70.58;99953.06;5022551;28;20025;-21
2022/09/16 02:13:00;;;;;;;1.50;0.90;;;;;;;12.74;70.39;99953.06;5029559;28;20474;-21
2022/09/16 02:15:33;;;;;;;1.52;1.20;;;;;;;12.70;70.40;99945.19;5028799;28;20041;-21
2022/09/16 02:18:10;;;;;;;1.45;1.10;;;;;;;12.69;70.63;99945.25;5013087;28;20022;-21
2022/09/16 02:20:42;;;;;;;2.78;1.20;;;;;;;12.69;70.69;99939.94;5031896;28;20056;-21
2022/09/16 02:23:24;;;;;;;2.30;0.75;;;;;;;12.67;70.72;99947.09;5021832;28;20030;-22
2022/09/16 02:25:52;;;;;;;1.65;1.00;;;;;;;12.62;70.87;99943.69;5031500;28;20036;-21
2022/09/16 02:30:49;;;;;;;1.70;1.05;;;;;;;12.58;70.91;99946.41;5072692;28;20451;-19
2022/09/16 02:33:15;;;;;;;1.80;0.82;;;;;;;12.56;70.86;99950.91;5055484;28;20039;-19
2022/09/16 02:35:43;;;;;;;0.85;0.85;;;;;;;12.55;70.43;99949.19;5042828;28;20040;-18
2022/09/16 02:38:14;;;;;;;1.88;0.90;;;;;;;12.55;70.71;99948.28;5049710;28;20424;-20
2022/09/16 02:41:00;;;;;;;1.23;0.95;;;;;;;12.54;70.69;99941.28;5055213;28;20024;-19
2022/09/16 02:43:25;;;;;;;1.50;0.90;;;;;;;12.52;70.51;99956.31;5032492;28;20079;-20
2022/09/16 02:45:59;;;;;;;0.80;0.80;;;;;;;12.52;71.05;99953.66;5070263;28;20044;-22
2022/09/16 02:48:43;;;;;;;4.10;1.00;;;;;;;12.48;70.97;99952.91;5054674;28;20043;-21
2022/09/16 02:51:31;;;;;;;1.05;0.82;;;;;;;12.44;70.85;99952.09;5055314;28;20560;-22
2022/09/16 02:54:03;;;;;;;1.52;0.75;;;;;;;12.43;71.22;99944.22;5071241;28;20056;-21
2022/09/16 02:56:37;;;;;;;1.38;0.80;;;;;;;12.41;70.83;99954.84;5050409;28;20453;-20
2022/09/16 02:59:05;;;;;;;0.95;0.85;;;;;;;12.40;70.80;99961.03;5068221;28;20408;-20
2022/09/16 03:01:32;;;;;;;1.77;0.95;;;;;;;12.39;71.02;99955.78;5066509;28;20078;-20
2022/09/16 03:04:02;;;;;;;2.58;1.10;;;;;;;12.37;70.92;99961.13;5050960;28;20488;-21
2022/09/16 03:06:28;;;;;;;3.80;1.25;;;;;;;12.36;70.70;99963.81;5072510;28;20408;-21
2022/09/16 03:08:57;;;;;;;1.10;0.90;;;;;;;12.33;71.22;99951.53;5065955;28;20097;-21
2022/09/16 03:12:03;;;;;;;2.80;1.10;;;;;;;12.34;71.11;99955.91;5049874;28;20100;-21
2022/09/16 03:14:49;;;;;;;0.93;0.77;;;;;;;12.30;71.08;99951.63;5066943;28;20037;-19
2022/09/16 03:17:16;;;;;;;1.55;1.08;;;;;;;12.32;70.89;99952.47;5068510;28;20035;-21
2022/09/16 03:23:36;;;;;;;2.58;0.95;;;;;;;12.27;70.88;99954.38;5068019;28;20086;-21
2022/09/16 03:26:21;;;;;;;1.50;1.33;;;;;;;12.25;70.64;99956.19;5052479;28;20028;-21
2022/09/16 03:29:01;;;;;;;1.88;1.13;;;;;;;12.19;70.87;99952.81;5047666;28;20021;-19
2022/09/16 03:31:35;;;;;;;1.23;1.07;;;;;;;12.21;71.26;99950.13;5070405;28;20032;-21
2022/09/16 03:34:27;;;;;;;1.33;0.95;;;;;;;12.17;71.32;99946.69;5065718;28;20039;-20
2022/09/16 03:36:57;;;;;;;2.50;0.70;;;;;;;12.16;71.20;99942.31;5059809;28;20024;-20
2022/09/16 03:39:22;;;;;;;1.02;0.73;;;;;;;12.13;71.31;99941.50;5072196;28;20031;-20
2022/09/16 03:41:48;;;;;;;1.27;1.17;;;;;;;12.13;71.11;99939.75;5067681;28;20115;-21
2022/09/16 03:44:13;;;;;;;1.38;1.05;;;;;;;12.10;70.92;99939.81;5051627;28;20073;-20
2022/09/16 03:46:39;;;;;;;1.38;0.70;;;;;;;12.11;71.12;99944.22;5070657;28;20056;-20
2022/09/16 03:49:04;;;;;;;1.25;1.05;;;;;;;12.13;70.92;99938.88;5053854;28;20025;-20
2022/09/16 03:51:32;;;;;;;1.17;1.10;;;;;;;12.05;71.25;99937.31;5050458;28;20059;-21
2022/09/16 03:53:58;;;;;;;1.10;1.00;;;;;;;12.08;70.88;99939.03;5070635;28;20017;-20
2022/09/16 03:56:26;;;;;;;1.27;1.00;;;;;;;12.05;70.82;99929.38;5070515;28;20156;-20
2022/09/16 03:58:51;;;;;;;1.63;1.05;;;;;;;12.08;71.13;99931.09;5070523;28;20025;-21
2022/09/16 04:01:17;;;;;;;1.48;1.20;;;;;;;12.04;71.09;99926.75;5072314;28;20504;-20
2022/09/16 04:03:42;;;;;;;1.52;0.95;;;;;;;12.04;70.67;99929.41;5071588;28;20377;-20
2022/09/16 04:06:08;;;;;;;1.00;1.00;;;;;;;12.04;71.14;99932.06;5071278;28;20032;-20
2022/09/16 04:08:35;;;;;;;1.42;1.10;;;;;;;12.01;71.00;99927.69;5072567;28;20078;-22
2022/09/16 04:11:04;;;;;;;2.17;1.00;;;;;;;12.04;70.97;99926.75;5071541;28;20036;-21
2022/09/16 04:13:32;;;;;;;1.52;1.00;;;;;;;12.02;70.67;99918.88;5052196;28;20028;-21
2022/09/16 04:15:57;;;;;;;1.05;0.90;;;;;;;12.03;70.87;99925.88;5069951;28;20028;-20
2022/09/16 04:18:22;;;;;;;1.85;0.80;;;;;;;12.01;70.86;99918.91;5069811;28;20485;-21
2022/09/16 04:20:48;;;;;;;1.60;1.02;;;;;;;12.00;70.77;99919.84;5065735;28;20512;-21
2022/09/16 04:23:13;;;;;;;0.90;0.90;;;;;;;11.99;70.54;99924.25;5063413;28;20109;-20
2022/09/16 04:25:39;;;;;;;1.45;1.10;;;;;;;11.95;70.83;99922.59;5066438;28;20381;-20
2022/09/16 04:28:05;;;;;;;1.30;1.00;;;;;;;11.94;71.17;99929.63;5044592;28;20032;-19
2022/09/16 04:30:30;;;;;;;1.83;1.00;;;;;;;11.91;71.11;99916.50;5053972;28;20025;-20
2022/09/16 04:32:56;;;;;;;1.25;1.15;;;;;;;11.93;71.12;99917.34;5066445;28;20032;-20
2022/09/16 04:35:23;;;;;;;1.90;1.25;;;;;;;11.92;71.20;99922.66;5047676;28;20052;-21
2022/09/16 04:37:49;;;;;;;1.45;0.90;;;;;;;11.89;71.14;99923.63;5069488;28;20028;-20
2022/09/16 04:40:15;;;;;;;1.10;0.93;;;;;;;11.90;70.95;99920.06;5049692;28;20028;-21
2022/09/16 04:42:41;;;;;;;0.93;0.93;;;;;;;11.89;71.19;99928.03;5067504;28;20057;-21
2022/09/16 04:45:07;;;;;;;1.05;0.95;;;;;;;11.89;70.76;99923.63;5044908;28;20490;-21
2022/09/16 04:47:32;;;;;;;3.33;1.05;;;;;;;11.87;70.93;99920.13;5066695;28;20074;-21
2022/09/16 04:49:57;;;;;;;1.23;0.93;;;;;;;11.89;70.84;99922.75;5067501;28;20032;-20
2022/09/16 04:52:23;;;;;;;2.25;1.38;;;;;;;11.87;71.00;99925.41;5067754;28;20028;-22
2022/09/16 04:54:48;;;;;;;1.67;1.00;;;;;;;11.87;70.55;99929.88;5070465;28;20021;-22
2022/09/16 04:57:16;;;;;;;1.80;1.00;;;;;;;11.81;71.24;99925.59;5047032;28;20029;-21
2022/09/16 04:59:43;;;;;;;2.13;1.20;;;;;;;11.80;71.14;99929.13;5065202;28;20024;-22
2022/09/16 05:02:08;;;;;;;1.40;1.30;;;;;;;11.78;70.88;99929.16;5065958;28;20028;-23
2022/09/16 05:04:34;;;;;;;2.78;1.20;;;;;;;11.79;71.38;99937.97;5070338;28;20036;-23
2022/09/16 05:06:59;;;;;;;1.20;1.10;;;;;;;11.78;71.24;99936.25;5066862;28;20032;-22
2022/09/16 05:09:24;;;;;;;2.75;1.27;;;;;;;11.73;71.60;99938.13;5070951;28;20059;-23
2022/09/16 05:11:50;;;;;;;1.30;1.08;;;;;;;11.72;71.35;99934.63;5071914;28;20021;-22
2022/09/16 05:14:17;;;;;;;3.47;1.30;;;;;;;11.72;71.73;99936.41;5067130;28;20021;-21
2022/09/16 05:16:44;;;;;;;1.63;1.30;;;;;;;11.68;71.83;99931.19;5071549;28;20103;-22
2022/09/16 05:19:11;;;;;;;1.52;1.30;;;;;;;11.70;71.48;99932.94;5071620;28;20017;-22
2022/09/16 05:21:37;;;;;;;1.50;1.35;;;;;;;11.68;71.68;99933.81;5065678;28;20473;-21
2022/09/16 05:24:04;;;;;;;1.35;1.20;;;;;;;11.67;71.90;99941.78;5058143;28;20031;-22
2022/09/16 05:26:31;;;;;;;1.50;1.40;;;;;;;11.66;71.72;99930.38;5038967;28;20033;-21
2022/09/16 05:29:00;;;;;;;1.35;1.13;;;;;;;11.63;71.68;99933.09;5074584;28;20150;-21
2022/09/16 05:31:29;;;;;;;3.63;1.30;;;;;;;11.64;72.02;99933.97;5053113;28;20115;-22
2022/09/16 05:34:03;;;;;;;1.40;1.30;;;;;;;11.62;72.50;99930.47;5056582;28;20389;-22
2022/09/16 05:36:30;;;;;;;4.07;1.70;;;;;;;11.62;72.56;99935.75;5052878;28;20117;-21
2022/09/16 05:38:56;;;;;;;3.33;1.33;;;;;;;11.60;72.51;99930.50;5067811;28;20025;-22
2022/09/16 05:41:22;;;;;;;4.25;1.80;;;;;;;11.61;72.94;99926.97;5056044;28;20024;-22
2022/09/16 05:43:47;;;;;;;2.47;1.30;;;;;;;11.61;72.59;99926.97;5074617;28;20051;-21
2022/09/16 05:46:33;;;;;;;2.67;1.33;;;;;;;11.63;73.02;99937.50;5072283;28;20477;-22
2022/09/16 05:48:58;;;;;;;3.35;1.60;;;;;;;11.66;72.42;99932.13;5051151;28;20020;-20
2022/09/16 05:51:24;;;;;;;1.35;1.25;;;;;;;11.62;72.95;99931.34;5073591;28;20063;-21
2022/09/16 05:53:52;;;;;;;1.83;1.67;;;;;;;11.67;72.71;99932.09;5074389;28;20110;-22
2022/09/16 05:56:24;;;;;;;1.30;1.20;;;;;;;11.68;73.25;99933.81;5074502;28;20028;-23
2022/09/16 05:58:53;;;;;;;2.85;1.30;;;;;;;11.74;73.42;99934.59;5051713;28;20131;-21
2022/09/16 06:01:32;;;;;;;1.20;1.15;;;;;;;11.74;73.20;99927.50;5062736;28;20028;-21
2022/09/16 06:04:00;;;;;;;2.05;1.30;;;;;;;11.77;73.51;99932.72;5070276;28;20074;-22
2022/09/16 06:07:09;;;;;;;2.63;1.48;;;;;;;11.80;73.16;99939.69;5054662;28;20500;-22
2022/09/16 06:09:35;;;;;;;3.13;1.40;;;;;;;11.81;73.37;99934.38;5072010;28;20033;-22
2022/09/16 06:12:01;;;;;;;1.85;1.30;;;;;;;11.85;73.52;99927.25;5075253;28;20035;-22
2022/09/16 06:14:27;;;;;;;2.47;1.20;;;;;;;11.89;73.67;99939.47;5070796;28;20047;-22
2022/09/16 06:16:52;;;;;;;2.05;1.23;;;;;;;11.90;73.34;99927.09;5074232;28;20423;-22
2022/09/16 06:19:17;;;;;;;2.28;1.23;;;;;;;11.92;73.35;99926.19;5056548;28;20060;-22
2022/09/16 06:21:44;;;;;;;3.13;1.42;;;;;;;11.96;73.60;99928.72;5072773;28;20028;-21
2022/09/16 06:24:10;;;;;;;1.63;1.33;;;;;;;11.98;73.26;99932.19;5072908;28;20028;-22
2022/09/16 06:26:41;;;;;;;1.88;1.10;;;;;;;12.01;73.38;99926.84;5066645;28;20390;-22
2022/09/16 06:29:07;;;;;;;1.95;1.10;;;;;;;12.05;73.12;99929.38;5067448;28;20035;-21
2022/09/16 06:31:33;;;;;;;0.80;0.80;;;;;;;12.08;73.35;99927.56;5073529;28;20037;-22
2022/09/16 06:33:59;;;;;;;2.28;1.13;;;;;;;12.09;73.02;99927.53;5082877;28;20050;-22
2022/09/16 06:36:29;;;;;;;3.38;1.20;;;;;;;12.13;73.52;99925.66;5088482;28;20016;-21
2022/09/16 06:38:54;;;;;;;1.60;1.00;;;;;;;12.17;73.46;99922.03;5056075;28;20039;-20
2022/09/16 06:41:20;;;;;;;1.48;0.80;;;;;;;12.18;73.65;99915.84;5073911;28;20029;-21
2022/09/16 06:43:46;;;;;;;2.40;1.20;;;;;;;12.20;73.51;99924.56;5047851;28;20028;-20
2022/09/16 06:46:16;;;;;;;1.17;1.08;;;;;;;12.24;74.11;99914.81;5073944;28;20021;-12
2022/09/16 06:48:44;;;;;;;1.77;1.40;;;;;;;12.32;75.65;99910.16;5055302;28;20057;-18
2022/09/16 06:51:30;;;;;;;1.17;1.08;;;;;;;12.37;77.28;99913.53;5072927;28;20035;-18
2022/09/16 06:54:01;;;;;;;2.25;0.93;;;;;;;12.43;77.25;99907.19;5073267;28;20029;-18
2022/09/16 06:56:27;;;;;;;2.05;1.10;;;;;;;12.50;77.19;99908.75;5071458;28;20054;-18
2022/09/16 06:58:54;;;;;;;1.67;0.95;;;;;;;12.59;77.75;99912.91;5055946;28;20024;-18
2022/09/16 07:01:21;;;;;;;1.17;1.08;;;;;;;12.68;77.64;99912.63;5056310;28;20103;-18
2022/09/16 07:03:49;;;;;;;1.27;1.17;;;;;;;12.76;78.15;99908.88;5056036;28;20462;-18
2022/09/16 07:06:16;;;;;;;3.05;1.05;;;;;;;12.80;77.80;99915.81;5055945;28;20028;-19
2022/09/16 07:08:42;;;;;;;1.55;1.00;;;;;;;12.87;78.34;99916.50;5071062;28;20051;-18
2022/09/16 07:11:12;;;;;;;1.15;1.10;;;;;;;12.88;77.75;99921.75;5071982;28;20051;-18
2022/09/16 07:13:37;;;;;;;1.30;1.15;;;;;;;13.01;77.65;99921.38;5072230;28;20057;-18
2022/09/16 07:16:07;;;;;;;1.02;0.98;;;;;;;13.07;77.28;99923.78;5047929;28;20108;-18
2022/09/16 07:18:33;;;;;;;1.20;1.05;;;;;;;13.14;77.09;99928.00;5055391;28;20023;-18
2022/09/16 07:21:15;;;;;;;2.60;1.13;;;;;;;13.18;76.66;99934.91;5073760;28;20024;-18
2022/09/16 07:23:41;;;;;;;1.63;1.13;;;;;;;13.29;76.60;99941.66;5043315;28;20058;-18
2022/09/16 07:26:09;;;;;;;4.22;1.20;;;;;;;13.39;76.45;99943.09;5054340;28;20032;-18
2022/09/16 07:28:36;;;;;;;3.15;1.02;;;;;;;13.42;76.73;99935.06;5050552;28;20032;-18
2022/09/16 07:31:09;;;;;;;2.70;1.23;;;;;;;13.56;76.82;99937.28;5064610;28;20082;-18
2022/09/16 07:33:39;;;;;;;4.30;1.23;;;;;;;13.66;76.64;99937.84;5066624;28;20107;-17
2022/09/16 07:36:06;;;;;;;1.40;1.30;;;;;;;13.71;76.04;99938.53;5068982;28;20027;-18
2022/09/16 07:38:32;;;;;;;2.97;1.63;;;;;;;13.80;76.28;99944.44;5069537;28;20277;-18
2022/09/16 07:41:11;;;;;;;1.50;1.35;;;;;;;13.88;75.61;99947.72;5070661;28;20029;-17
2022/09/16 07:43:39;;;;;;;3.55;1.73;;;;;;;13.97;76.03;99952.69;5054289;28;20033;-18
2022/09/16 07:46:05;;;;;;;2.15;1.45;;;;;;;14.08;75.24;99946.13;5068773;28;20035;-17
2022/09/16 07:48:32;;;;;;;2.08;1.67;;;;;;;14.20;75.45;99956.31;5061619;28;20029;-19
2022/09/16 07:51:00;;;;;;;3.40;1.55;;;;;;;14.19;74.76;99946.63;5072650;28;20070;-18
2022/09/16 07:53:28;;;;;;;2.42;1.60;;;;;;;14.26;74.74;99951.69;5068049;28;20026;-18
2022/09/16 07:55:54;;;;;;;2.45;1.85;;;;;;;14.21;73.28;99959.84;5052469;28;20408;-18
2022/09/16 07:58:20;;;;;;;1.80;1.70;;;;;;;14.26;73.48;99957.88;5069239;28;20488;-18
2022/09/16 08:00:46;;;;;;;3.75;1.70;;;;;;;14.21;72.56;99955.38;5072206;28;20107;-18
2022/09/16 08:03:12;;;;;;;2.47;1.65;;;;;;;14.28;73.19;99950.75;5070283;28;20120;-17
2022/09/16 08:05:38;;;;;;;2.85;1.63;;;;;;;14.20;72.82;99948.34;5067707;28;20091;-17
2022/09/16 08:08:04;;;;;;;1.50;1.40;;;;;;;14.27;72.82;99948.97;5069262;28;20033;-17
2022/09/16 08:10:29;;;;;;;1.60;1.33;;;;;;;14.21;72.30;99950.06;5068025;28;20036;-17
2022/09/16 08:12:55;;;;;;;4.10;2.13;;;;;;;14.27;72.50;99945.47;5063861;28;20024;-17
2022/09/16 08:15:21;;;;;;;2.08;1.50;;;;;;;14.32;72.95;99951.47;5068683;28;20440;-17
2022/09/16 08:17:46;;;;;;;3.42;1.67;;;;;;;14.36;73.09;99958.41;5071627;28;20103;-17
2022/09/16 08:20:11;;;;;;;2.28;1.42;;;;;;;14.37;73.21;99957.47;5060540;28;20377;-17
2022/09/16 08:22:37;;;;;;;2.65;1.40;;;;;;;14.39;72.40;99955.63;5067491;28;20051;-17
2022/09/16 08:25:04;;;;;;;4.55;1.77;;;;;;;14.39;72.45;99955.63;5070909;28;20052;-17
2022/09/16 08:27:30;;;;;;;1.65;1.55;;;;;;;14.45;72.37;99957.19;5071066;28;20024;-17
2022/09/16 08:29:55;;;;;;;2.10;1.88;;;;;;;14.50;71.50;99950.81;5030569;28;20550;-17
2022/09/16 08:32:21;;;;;;;2.25;1.73;;;;;;;14.53;71.67;99938.31;5069359;28;20025;-17
2022/09/16 08:34:47;;;;;;;1.52;1.42;;;;;;;14.58;71.52;99941.69;5064170;28;20025;-18
2022/09/16 08:37:13;;;;;;;1.55;1.45;;;;;;;14.55;71.20;99936.50;5062284;28;20400;-17
2022/09/16 08:39:39;;;;;;;1.70;1.60;;;;;;;14.52;70.69;99949.88;5077306;28;20028;-17
2022/09/16 08:42:20;;;;;;;1.45;1.35;;;;;;;14.46;70.30;99949.19;5071245;28;20474;-17
2022/09/16 08:45:11;;;;;;;2.10;1.40;;;;;;;14.33;69.59;99947.91;5071652;28;20060;-17
2022/09/16 08:47:42;;;;;;;4.10;1.60;;;;;;;14.26;70.67;99951.69;5068283;28;20494;-17
2022/09/16 08:50:14;;;;;;;5.53;1.50;;;;;;;14.26;71.36;99957.00;5069117;28;20036;-17
2022/09/16 08:52:41;;;;;;;4.53;2.03;;;;;;;14.25;73.40;99961.44;5047252;28;20026;-17
2022/09/16 08:55:13;;;;;;;1.90;1.50;;;;;;;14.13;75.58;99962.75;5049601;28;20033;-17
2022/09/16 08:57:53;;;;;;;2.13;1.50;;;;;;;13.96;77.49;99976.59;5045478;28;20424;-17
2022/09/16 09:00:18;;;;;;;2.78;1.55;;;;;;;13.70;77.97;99968.59;5052909;28;20097;-17
2022/09/16 09:02:55;;;;;;;2.38;1.30;;;;;;;13.37;79.80;99968.75;5069101;28;20525;-17
2022/09/16 09:05:30;;;;;;;2.25;1.35;;;;;;;13.50;80.63;99973.72;5041896;28;20024;-17
2022/09/16 09:08:08;;;;;;;2.33;1.52;;;;;;;13.43;80.66;99963.28;5069379;28;20027;-17
2022/09/16 09:10:42;;;;;;;1.88;1.58;;;;;;;13.47;81.14;99964.91;5034571;28;20074;-17
2022/09/16 09:13:36;;;;;;;1.60;1.50;;;;;;;13.52;81.21;99966.56;5052695;28;20786;-17
2022/09/16 09:16:17;;;;;;;1.95;1.40;;;;;;;13.49;81.61;99962.25;5053854;28;20509;-17
2022/09/16 09:19:05;;;;;;;;;;;;;;;13.57;81.06;99964.66;5042594;28;20029;-17
2022/09/16 09:21:43;;;;;;;1.45;1.35;;;;;;;13.60;81.02;99959.22;5065004;28;19930;-17
2022/09/16 09:24:16;;;;;;;1.73;1.63;;;;;;;13.46;80.28;99957.00;5070094;28;20028;-17
2022/09/16 09:26:50;;;;;;;2.15;1.67;;;;;;;13.57;81.33;99959.34;5056018;28;20060;-17
2022/09/16 09:30:11;;;;;;;2.28;1.65;;;;;;;13.77;81.56;99950.72;5069218;28;20032;-17
2022/09/16 09:32:43;;;;;;;1.60;1.50;;;;;;;13.86;81.63;99957.47;5027151;28;20032;-17
2022/09/16 09:35:21;;;;;;;1.52;1.42;;;;;;;13.94;80.37;99955.44;5044442;28;20117;-17
2022/09/16 09:38:17;;;;;;;2.63;2.28;;;;;;;14.03;79.00;99948.94;5060275;28;20028;-17
2022/09/16 09:40:51;;;;;;;1.67;1.52;;;;;;;14.24;79.04;99949.13;5062361;28;20107;-17
2022/09/16 09:43:24;;;;;;;1.70;1.60;;;;;;;14.29;76.93;99938.31;5068613;28;20036;-17
2022/09/16 09:46:04;;;;;;;1.85;1.75;;;;;;;14.52;75.81;99931.31;5066723;28;20029;-17
2022/09/16 09:48:51;;;;;;;2.15;1.50;;;;;;;14.80;75.25;99925.84;5046146;28;20028;-17
2022/09/16 09:51:39;;;;;;;2.10;1.50;;;;;;;15.01;73.39;99912.66;5043035;28;20027;-17
2022/09/16 09:54:29;;;;;;;1.38;1.27;;;;;;;15.12;74.40;99920.19;5039878;28;20039;-17
2022/09/16 09:57:04;;;;;;;0.95;0.95;;;;;;;15.20;74.33;99915.44;5062621;28;20025;-17
2022/09/16 09:59:35;;;;;;;5.28;1.40;;;;;;;15.27;73.18;99908.94;5069949;28;20480;-17
2022/09/16 10:02:01;;;;;;;;;;;;;;;15.35;69.45;99926.34;5071365;28;20028;-17
2022/09/16 10:04:36;;;;;;;0.90;0.90;;;;;;;15.53;70.27;99903.47;5071082;28;20321;-17
2022/09/16 10:07:04;;;;;;;1.27;1.17;;;;;;;15.69;70.27;99913.44;5071335;28;20586;-17
2022/09/16 10:09:30;;;;;;;1.35;1.13;;;;;;;15.71;68.87;99907.13;5071047;28;20020;-17
2022/09/16 10:11:56;;;;;;;2.60;1.30;;;;;;;15.69;70.30;99903.69;5050378;28;20960;-17
2022/09/16 10:14:34;;;;;;;1.77;1.00;;;;;;;15.81;71.26;99909.41;5051696;28;20518;-16
2022/09/16 10:17:12;;;;;;;1.10;1.00;;;;;;;15.88;71.28;99902.88;5043746;28;20024;-17
2022/09/16 10:20:00;;;;;;;0.98;0.98;;;;;;;16.00;71.03;99894.41;5025948;28;20078;-17
2022/09/16 10:22:29;;;;;;;1.38;1.10;;;;;;;16.14;70.96;99899.09;5075443;28;20028;-17
2022/09/16 10:24:57;;;;;;;0.90;0.90;;;;;;;16.26;70.45;99899.47;5068823;28;20035;-17
2022/09/16 10:27:34;;;;;;;0.93;0.90;;;;;;;16.36;70.18;99886.63;5066763;28;20025;-17
2022/09/16 10:30:14;;;;;;;1.00;1.00;;;;;;;16.47;69.90;99894.97;5054238;28;20381;-17
2022/09/16 10:32:55;;;;;;;1.20;1.05;;;;;;;16.56;69.35;99893.69;5072122;28;20381;-17
2022/09/16 10:35:23;;;;;;;0.90;0.85;;;;;;;16.67;68.81;99890.50;5073558;28;20020;-17
2022/09/16 10:37:54;;;;;;;1.98;0.90;;;;;;;16.75;68.01;99887.50;5048892;28;20035;-17
2022/09/16 10:40:22;;;;;;;0.90;0.90;;;;;;;16.82;67.66;99888.94;5072525;28;20032;-17
2022/09/16 10:42:50;;;;;;;1.95;1.08;;;;;;;16.88;66.99;99887.78;5073087;28;20477;-17
2022/09/16 10:45:27;;;;;;;0.75;0.70;;;;;;;16.96;65.80;99880.25;5053412;28;20071;-17
2022/09/16 10:47:58;;;;;;;0.77;0.70;;;;;;;17.05;66.13;99885.16;5073506;28;20016;-17
2022/09/16 10:50:25;;;;;;;2.83;0.63;;;;;;;17.12;66.09;99876.88;5069239;28;20422;-17
2022/09/16 10:52:51;;;;;;;1.20;0.60;;;;;;;17.24;65.52;99884.25;5069991;28;20124;-17
2022/09/16 10:55:36;;;;;;;1.00;0.70;;;;;;;17.30;65.55;99877.75;5069532;28;20031;-17
2022/09/16 10:58:17;;;;;;;1.40;0.75;;;;;;;17.42;65.28;99873.63;5068069;28;20039;-17
2022/09/16 11:01:22;;;;;;;0.68;0.68;;;;;;;17.53;64.80;99884.59;5064644;28;20108;-17
2022/09/16 11:04:14;;;;;;;1.00;0.55;;;;;;;17.65;65.21;99874.25;5051056;28;20540;-17
2022/09/16 11:06:54;;;;;;;3.40;0.70;;;;;;;17.77;65.38;99878.09;5051392;28;20037;-17
2022/09/16 11:09:35;;;;;;;3.67;1.27;;;;;;;17.85;65.16;99891.91;5047071;28;20028;-17
2022/09/16 11:12:28;;;;;;;1.10;0.90;;;;;;;18.00;64.56;99868.88;5071622;28;20111;-17
2022/09/16 11:15:05;;;;;;;1.48;0.75;;;;;;;18.10;64.49;99876.44;5061849;28;20033;-17
2022/09/16 11:18:08;;;;;;;2.33;0.70;;;;;;;18.16;63.50;99878.75;5069668;28;20058;-17
2022/09/16 11:20:57;;;;;;;2.03;0.90;;;;;;;18.26;63.57;99885.31;5068773;28;20486;-17
2022/09/16 11:23:32;;;;;;;0.80;0.60;;;;;;;18.32;62.59;99884.13;5013149;28;20094;-17
2022/09/16 11:26:26;;;;;;;3.88;0.90;;;;;;;18.30;61.73;99884.22;5068577;28;20028;-17
2022/09/16 11:29:13;;;;;;;0.50;0.50;;;;;;;18.26;60.70;99890.66;5071172;28;20036;-17
2022/09/16 11:31:39;;;;;;;1.45;0.80;;;;;;;18.25;60.82;99901.41;5072604;28;20457;-17
2022/09/16 11:34:33;;;;;;;1.48;0.80;;;;;;;18.16;60.37;99892.97;5054955;28;20060;-17
2022/09/16 11:37:06;;;;;;;0.68;0.50;;;;;;;18.10;59.96;99895.09;5070916;28;20099;-17
2022/09/16 11:40:10;;;;;;;0.80;0.80;;;;;;;18.01;59.75;99907.94;5045232;28;20036;-17
2022/09/16 11:42:51;;;;;;;0.85;0.43;;;;;;;17.95;60.24;99900.28;5051693;28;20181;-16
2022/09/16 11:45:34;;;;;;;2.15;0.63;;;;;;;17.96;60.24;99885.97;5052590;28;20032;-16
2022/09/16 11:48:38;;;;;;;0.95;0.40;;;;;;;17.94;60.09;99883.41;5038231;28;20119;-17
2022/09/16 11:51:45;;;;;;;1.13;0.50;;;;;;;18.00;60.62;99882.22;4986049;28;20112;-17
2022/09/16 11:54:23;;;;;;;0.47;0.47;;;;;;;18.04;61.23;99878.44;4987693;28;20074;-17
2022/09/16 11:57:13;;;;;;;1.10;0.70;;;;;;;18.10;60.85;99876.44;5047874;28;20489;-17
2022/09/16 11:59:46;;;;;;;0.60;0.60;;;;;;;18.14;61.34;99860.16;5051842;28;20029;-17
2022/09/16 12:02:15;;;;;;;1.10;0.43;;;;;;;18.24;61.61;99860.50;5042356;28;20027;-16
2022/09/16 12:04:46;;;;;;;0.40;0.40;;;;;;;18.33;62.16;99864.50;5069716;28;20531;-16
2022/09/16 12:07:24;;;;;;;;;;;;;;;18.35;60.87;99859.94;5054409;28;20075;-16